createdAt,value
2018-02-18T00:02:15.349Z,79.91
2018-02-18T00:04:43.666Z,79.33
2018-02-18T00:07:11.948Z,81.36
2018-02-18T00:09:40.270Z,81.39
2018-02-18T00:12:08.512Z,80.78
2018-02-18T00:14:37.764Z,80.35
2018-02-18T00:17:06.071Z,80.37
2018-02-18T00:19:34.377Z,80.15
2018-02-18T00:22:02.680Z,80.82
2018-02-18T00:24:30.950Z,80.47
2018-02-18T00:26:59.250Z,79.92
2018-02-18T00:29:27.656Z,79.05
2018-02-18T00:31:56.010Z,79.01
2018-02-18T00:34:24.294Z,79.73
2018-02-18T00:36:52.587Z,80.30
2018-02-18T00:39:20.864Z,80.80
2018-02-18T00:41:49.166Z,81.73
2018-02-18T00:44:17.423Z,82.09
2018-02-18T00:46:45.728Z,82.43
2018-02-18T00:49:14.016Z,82.59
2018-02-18T00:51:42.328Z,82.23
2018-02-18T00:54:10.629Z,82.19
2018-02-18T00:56:38.906Z,81.48
2018-02-18T00:59:07.189Z,81.23
2018-02-18T01:01:35.453Z,80.54
2018-02-18T01:04:03.762Z,80.95
2018-02-18T01:06:32.053Z,80.77
2018-02-18T01:09:00.359Z,80.61
2018-02-18T01:11:28.672Z,80.76
2018-02-18T01:13:57.011Z,81.04
2018-02-18T01:16:25.328Z,81.16
2018-02-18T01:18:53.604Z,81.16
2018-02-18T01:21:21.926Z,80.36
2018-02-18T01:23:50.226Z,80.05
2018-02-18T01:26:18.546Z,79.76
2018-02-18T01:28:46.812Z,80.36
2018-02-18T01:31:15.143Z,80.34
2018-02-18T01:33:43.396Z,79.74
2018-02-18T01:36:11.701Z,80.48
2018-02-18T01:38:40.005Z,79.72
2018-02-18T01:41:08.299Z,79.81
2018-02-18T01:43:36.560Z,80.02
2018-02-18T01:46:05.217Z,79.94
2018-02-18T01:48:33.522Z,79.53
2018-02-18T01:51:01.872Z,78.47
2018-02-18T01:53:30.142Z,78.97
2018-02-18T01:55:58.500Z,78.93
2018-02-18T01:58:26.796Z,78.98
2018-02-18T02:00:55.111Z,79.04
2018-02-18T02:03:23.384Z,79.00
2018-02-18T02:05:51.676Z,78.87
2018-02-18T02:08:19.979Z,79.41
2018-02-18T02:10:48.258Z,78.85
2018-02-18T02:13:16.566Z,78.90
2018-02-18T02:15:45.096Z,78.89
2018-02-18T02:18:13.420Z,79.40
2018-02-18T02:20:41.707Z,78.88
2018-02-18T02:23:10.003Z,77.69
2018-02-18T02:25:38.303Z,78.07
2018-02-18T02:28:06.628Z,78.85
2018-02-18T02:30:34.898Z,78.81
2018-02-18T02:33:03.192Z,78.22
2018-02-18T02:35:31.632Z,77.99
2018-02-18T02:37:59.902Z,79.58
2018-02-18T02:40:28.369Z,80.39
2018-02-18T02:42:56.660Z,80.25
2018-02-18T02:45:24.996Z,81.10
2018-02-18T02:47:53.263Z,80.60
2018-02-18T02:50:21.556Z,80.90
2018-02-18T02:52:49.852Z,80.27
2018-02-18T02:55:18.171Z,79.34
2018-02-18T02:57:46.457Z,79.21
2018-02-18T03:00:14.755Z,78.84
2018-02-18T03:02:43.056Z,77.99
2018-02-18T03:05:11.342Z,76.74
2018-02-18T03:07:39.617Z,76.33
2018-02-18T03:10:07.932Z,77.00
2018-02-18T03:12:36.207Z,77.24
2018-02-18T03:15:05.134Z,78.99
2018-02-18T03:17:33.416Z,78.97
2018-02-18T03:20:01.707Z,77.53
2018-02-18T03:22:30.037Z,77.32
2018-02-18T03:24:58.327Z,76.25
2018-02-18T03:27:26.627Z,74.16
2018-02-18T03:29:54.915Z,75.26
2018-02-18T03:32:23.208Z,76.19
2018-02-18T03:34:51.522Z,77.57
2018-02-18T03:37:19.828Z,78.26
2018-02-18T03:39:48.099Z,77.14
2018-02-18T03:42:16.382Z,76.38
2018-02-18T03:44:44.656Z,76.32
2018-02-18T03:47:12.967Z,77.50
2018-02-18T03:49:41.565Z,77.49
2018-02-18T03:52:09.834Z,78.64
2018-02-18T03:54:38.137Z,78.75
2018-02-18T03:57:06.426Z,79.00
2018-02-18T03:59:34.738Z,79.55
2018-02-18T04:02:03.082Z,79.53
2018-02-18T04:04:31.379Z,79.50
2018-02-18T04:06:59.645Z,79.23
2018-02-18T04:09:27.932Z,80.14
2018-02-18T04:11:56.200Z,81.57
2018-02-18T04:14:24.499Z,81.33
2018-02-18T04:16:52.768Z,80.96
2018-02-18T04:19:21.062Z,81.27
2018-02-18T04:21:49.328Z,81.61
2018-02-18T04:24:18.356Z,81.01
2018-02-18T04:26:46.651Z,80.20
2018-02-18T04:29:14.919Z,79.95
2018-02-18T04:31:43.216Z,79.92
2018-02-18T04:34:11.489Z,78.51
2018-02-18T04:36:39.779Z,77.39
2018-02-18T04:39:08.056Z,77.69
2018-02-18T04:41:36.356Z,79.15
2018-02-18T04:44:05.455Z,80.01
2018-02-18T04:46:33.760Z,79.49
2018-02-18T04:49:02.071Z,78.63
2018-02-18T04:51:30.356Z,77.84
2018-02-18T04:53:58.708Z,77.41
2018-02-18T04:56:27.000Z,76.51
2018-02-18T04:58:55.331Z,76.71
2018-02-18T05:01:23.592Z,76.05
2018-02-18T05:03:51.879Z,75.61
2018-02-18T05:06:20.164Z,74.69
2018-02-18T05:08:48.466Z,75.59
2018-02-18T05:11:16.728Z,77.51
2018-02-18T05:13:45.016Z,78.37
2018-02-18T05:16:13.291Z,79.72
2018-02-18T05:18:41.582Z,80.40
2018-02-18T05:21:09.845Z,80.63
2018-02-18T05:23:38.152Z,79.20
2018-02-18T05:26:06.488Z,79.96
2018-02-18T05:28:35.606Z,79.99
2018-02-18T05:31:03.904Z,79.25
2018-02-18T05:33:32.178Z,78.04
2018-02-18T05:36:00.464Z,77.13
2018-02-18T05:38:28.720Z,76.19
2018-02-18T05:40:57.021Z,75.41
2018-02-18T05:43:25.272Z,74.57
2018-02-18T05:45:53.579Z,74.37
2018-02-18T05:48:21.838Z,73.92
2018-02-18T05:50:50.099Z,73.86
2018-02-18T05:53:18.391Z,73.66
2018-02-18T05:55:46.654Z,72.67
2018-02-18T05:58:14.977Z,73.16
2018-02-18T06:00:43.244Z,72.76
2018-02-18T06:03:11.531Z,72.72
2018-02-18T06:05:39.791Z,72.81
2018-02-18T06:08:08.099Z,72.60
2018-02-18T06:10:36.380Z,73.02
2018-02-18T06:13:05.020Z,73.10
2018-02-18T06:15:33.292Z,73.14
2018-02-18T06:18:01.568Z,72.93
2018-02-18T06:20:29.860Z,72.60
2018-02-18T06:22:58.143Z,72.51
2018-02-18T06:25:26.481Z,71.62
2018-02-18T06:27:54.734Z,71.74
2018-02-18T06:30:22.995Z,72.50
2018-02-18T06:32:51.292Z,72.89
2018-02-18T06:35:19.582Z,72.62
2018-02-18T06:37:47.840Z,72.66
2018-02-18T06:40:16.309Z,72.02
2018-02-18T06:42:44.597Z,71.98
2018-02-18T06:45:12.862Z,72.29
2018-02-18T06:47:41.168Z,72.64
2018-02-18T06:50:09.442Z,73.07
2018-02-18T06:52:37.740Z,72.81
2018-02-18T06:55:06.041Z,73.10
2018-02-18T06:57:34.315Z,72.05
2018-02-18T07:00:02.607Z,72.46
2018-02-18T07:02:30.918Z,72.50
2018-02-18T07:04:59.223Z,72.16
2018-02-18T07:07:27.531Z,72.68
2018-02-18T07:09:55.827Z,72.74
2018-02-18T07:12:24.098Z,72.44
2018-02-18T07:14:52.707Z,70.80
2018-02-18T07:17:20.982Z,71.03
2018-02-18T07:19:49.287Z,71.32
2018-02-18T07:22:17.552Z,71.11
2018-02-18T07:24:45.824Z,70.83
2018-02-18T07:27:14.163Z,71.27
2018-02-18T07:29:42.453Z,71.57
2018-02-18T07:32:10.753Z,71.28
2018-02-18T07:34:39.032Z,71.75
2018-02-18T07:37:07.315Z,71.44
2018-02-18T07:39:35.587Z,71.89
2018-02-18T07:42:04.963Z,71.70
2018-02-18T07:44:33.248Z,72.26
2018-02-18T07:47:01.540Z,71.73
2018-02-18T07:51:57.212Z,71.82
2018-02-18T07:54:25.595Z,71.84
2018-02-18T07:56:53.877Z,72.05
2018-02-18T07:59:22.179Z,71.45
2018-02-18T08:01:50.475Z,71.99
2018-02-18T08:04:18.784Z,71.36
2018-02-18T08:09:14.444Z,71.92
2018-02-18T08:11:42.719Z,71.41
2018-02-18T08:14:11.030Z,70.98
2018-02-18T08:16:39.305Z,71.44
2018-02-18T08:19:07.616Z,72.08
2018-02-18T08:21:35.879Z,71.93
2018-02-18T08:24:04.994Z,72.03
2018-02-18T08:26:33.251Z,71.96
2018-02-18T08:29:01.556Z,72.57
2018-02-18T08:31:29.852Z,72.18
2018-02-18T08:33:58.165Z,71.96
2018-02-18T08:36:26.442Z,72.27
2018-02-18T08:38:54.723Z,72.03
2018-02-18T08:41:23.014Z,71.94
2018-02-18T08:43:51.284Z,72.17
2018-02-18T08:46:19.625Z,72.06
2018-02-18T08:48:47.901Z,72.07
2018-02-18T08:51:16.203Z,71.78
2018-02-18T08:53:44.480Z,72.16
2018-02-18T08:56:12.804Z,71.60
2018-02-18T08:58:41.108Z,72.01
2018-02-18T09:01:09.373Z,72.36
2018-02-18T09:03:37.682Z,72.86
2018-02-18T09:06:05.962Z,72.83
2018-02-18T09:08:34.257Z,72.47
2018-02-18T09:11:02.523Z,72.56
2018-02-18T09:13:30.871Z,72.88
2018-02-18T09:15:59.163Z,73.14
2018-02-18T09:18:27.704Z,73.94
2018-02-18T09:20:56.076Z,74.00
2018-02-18T09:23:24.368Z,73.26
2018-02-18T09:25:52.728Z,73.25
2018-02-18T09:28:21.130Z,73.12
2018-02-18T09:30:49.486Z,73.05
2018-02-18T09:33:17.919Z,72.93
2018-02-18T09:35:46.292Z,72.75
2018-02-18T09:38:14.569Z,73.10
2018-02-18T09:40:42.892Z,72.59
2018-02-18T09:43:11.281Z,72.46
2018-02-18T09:45:39.596Z,72.13
2018-02-18T09:48:07.852Z,72.53
2018-02-18T09:50:36.134Z,72.37
2018-02-18T09:53:05.152Z,72.35
2018-02-18T09:55:34.152Z,72.25
2018-02-18T09:58:02.451Z,72.07
2018-02-18T10:00:30.762Z,71.92
2018-02-18T10:02:59.039Z,71.37
2018-02-18T10:05:27.352Z,71.25
2018-02-18T10:07:55.669Z,70.64
2018-02-18T10:10:23.972Z,70.29
2018-02-18T10:12:52.288Z,70.26
2018-02-18T10:15:20.559Z,69.80
2018-02-18T10:17:48.868Z,70.55
2018-02-18T10:20:17.190Z,69.38
2018-02-18T10:22:45.485Z,69.92
2018-02-18T10:25:13.851Z,70.38
2018-02-18T10:27:42.089Z,70.63
2018-02-18T10:30:10.384Z,70.96
2018-02-18T10:32:39.487Z,71.39
2018-02-18T10:35:07.831Z,71.41
2018-02-18T10:37:36.076Z,70.51
2018-02-18T10:40:04.387Z,70.52
2018-02-18T10:42:32.688Z,70.00
2018-02-18T10:45:01.008Z,69.17
2018-02-18T10:47:30.079Z,69.57
2018-02-18T10:49:58.353Z,69.13
2018-02-18T10:52:26.697Z,69.93
2018-02-18T10:54:54.934Z,69.67
2018-02-18T10:57:23.205Z,69.06
2018-02-18T10:59:51.544Z,68.74
2018-02-18T11:02:19.839Z,69.08
2018-02-18T11:04:48.127Z,68.62
2018-02-18T11:07:16.396Z,68.50
2018-02-18T11:09:44.776Z,68.17
2018-02-18T11:12:13.048Z,68.03
2018-02-18T11:14:41.296Z,68.05
2018-02-18T11:17:09.623Z,67.91
2018-02-18T11:19:37.936Z,68.23
2018-02-18T11:22:06.228Z,68.00
2018-02-18T11:24:34.499Z,66.41
2018-02-18T11:27:02.793Z,66.02
2018-02-18T11:29:31.056Z,66.41
2018-02-18T11:31:59.350Z,67.32
2018-02-18T11:34:27.737Z,68.11
2018-02-18T11:36:56.020Z,67.59
2018-02-18T11:39:24.300Z,67.79
2018-02-18T11:41:52.643Z,66.89
2018-02-18T11:44:20.918Z,67.07
2018-02-18T11:46:49.216Z,66.95
2018-02-18T11:49:17.536Z,66.91
2018-02-18T11:51:45.844Z,66.19
2018-02-18T11:54:14.160Z,66.18
2018-02-18T11:56:42.437Z,66.24
2018-02-18T11:59:10.808Z,65.57
2018-02-18T12:01:39.108Z,64.99
2018-02-18T12:04:07.468Z,65.36
2018-02-18T12:06:36.579Z,65.01
2018-02-18T12:09:05.361Z,64.64
2018-02-18T12:11:33.741Z,64.07
2018-02-18T12:14:01.985Z,63.51
2018-02-18T12:16:30.347Z,63.63
2018-02-18T12:18:58.656Z,63.17
2018-02-18T12:21:26.939Z,62.98
2018-02-18T12:23:55.246Z,62.53
2018-02-18T12:26:23.580Z,62.86
2018-02-18T12:28:51.847Z,63.34
2018-02-18T12:31:20.192Z,62.32
2018-02-18T12:33:48.520Z,61.08
2018-02-18T12:36:16.814Z,61.06
2018-02-18T12:38:45.071Z,60.89
2018-02-18T12:41:13.453Z,60.83
2018-02-18T12:43:41.732Z,61.10
2018-02-18T12:46:10.032Z,60.83
2018-02-18T12:48:38.349Z,61.21
2018-02-18T12:51:06.639Z,60.92
2018-02-18T12:53:34.952Z,60.83
2018-02-18T12:56:03.249Z,60.37
2018-02-18T12:58:31.586Z,60.86
2018-02-18T13:00:59.875Z,61.14
2018-02-18T13:03:28.232Z,61.23
2018-02-18T13:05:56.549Z,60.78
2018-02-18T13:08:24.958Z,60.04
2018-02-18T13:10:53.266Z,59.27
2018-02-18T13:13:21.559Z,59.50
2018-02-18T13:15:49.899Z,58.74
2018-02-18T13:18:18.277Z,58.62
2018-02-18T13:20:46.625Z,58.82
2018-02-18T13:23:14.953Z,59.13
2018-02-18T13:25:43.292Z,59.16
2018-02-18T13:28:11.658Z,58.39
2018-02-18T13:30:40.427Z,58.20
2018-02-18T13:33:08.890Z,58.28
2018-02-18T13:35:37.241Z,57.86
2018-02-18T13:38:05.670Z,57.16
2018-02-18T13:40:33.989Z,56.10
2018-02-18T13:43:02.334Z,55.93
2018-02-18T13:45:30.730Z,55.29
2018-02-18T13:47:59.866Z,55.01
2018-02-18T13:50:28.160Z,54.83
2018-02-18T13:52:56.484Z,55.12
2018-02-18T13:55:24.816Z,54.42
2018-02-18T13:57:53.093Z,54.62
2018-02-18T14:00:21.405Z,55.45
2018-02-18T14:02:49.692Z,56.13
2018-02-18T14:05:18.011Z,56.31
2018-02-18T14:07:46.330Z,56.41
2018-02-18T14:10:14.631Z,57.08
2018-02-18T14:12:42.951Z,57.30
2018-02-18T14:15:11.268Z,57.62
2018-02-18T14:17:39.544Z,58.22
2018-02-18T14:20:07.899Z,58.63
2018-02-18T14:22:36.248Z,59.02
2018-02-18T14:25:04.572Z,58.39
2018-02-18T14:27:32.909Z,58.89
2018-02-18T14:30:01.261Z,59.05
2018-02-18T14:32:29.999Z,58.87
2018-02-18T14:34:58.323Z,59.37
2018-02-18T14:37:26.655Z,59.16
2018-02-18T14:39:54.928Z,59.69
2018-02-18T14:42:34.904Z,60.09
2018-02-18T14:45:15.048Z,59.92
2018-02-18T14:50:56.468Z,59.97
2018-02-18T14:53:36.563Z,60.40
2018-02-18T14:59:09.699Z,60.48
2018-02-18T15:01:38.084Z,60.45
2018-02-18T15:04:06.941Z,60.05
2018-02-18T15:06:35.227Z,60.25
2018-02-18T15:09:03.611Z,59.86
2018-02-18T15:11:31.899Z,59.92
2018-02-18T15:14:00.197Z,59.86
2018-02-18T15:16:28.498Z,59.58
2018-02-18T15:18:56.849Z,60.06
2018-02-18T15:21:25.157Z,59.51
2018-02-18T15:23:53.436Z,59.23
2018-02-18T15:26:21.740Z,59.16
2018-02-18T15:28:50.027Z,59.55
2018-02-18T15:31:18.323Z,59.48
2018-02-18T15:33:46.660Z,59.87
2018-02-18T15:36:14.989Z,60.12
2018-02-18T15:38:43.268Z,59.90
2018-02-18T15:41:11.620Z,60.51
2018-02-18T15:43:39.924Z,60.08
2018-02-18T15:46:08.220Z,59.98
2018-02-18T15:48:36.518Z,60.36
2018-02-18T15:51:04.822Z,60.77
2018-02-18T15:53:33.149Z,60.42
2018-02-18T15:56:01.428Z,60.54
2018-02-18T15:58:29.759Z,61.07
2018-02-18T16:00:58.056Z,61.31
2018-02-18T16:03:27.222Z,61.71
2018-02-18T16:05:55.500Z,62.41
2018-02-18T16:08:23.865Z,62.96
2018-02-18T16:10:52.175Z,63.21
2018-02-18T16:13:20.446Z,63.56
2018-02-18T16:15:48.813Z,63.69
2018-02-18T16:18:18.131Z,63.73
2018-02-18T16:20:46.459Z,63.74
2018-02-18T16:23:14.876Z,64.17
2018-02-18T16:25:43.242Z,64.20
2018-02-18T16:28:11.728Z,65.30
2018-02-18T16:30:40.138Z,65.26
2018-02-18T16:33:08.414Z,65.29
2018-02-18T16:35:37.671Z,64.98
2018-02-18T16:38:05.996Z,65.17
2018-02-18T16:40:34.319Z,64.95
2018-02-18T16:43:02.920Z,64.78
2018-02-18T16:45:31.209Z,64.95
2018-02-18T16:48:00.307Z,65.16
2018-02-18T16:50:28.601Z,65.17
2018-02-18T16:52:57.363Z,65.04
2018-02-18T16:55:26.402Z,65.33
2018-02-18T16:57:54.741Z,65.35
2018-02-18T17:00:23.001Z,65.35
2018-02-18T17:02:51.922Z,65.44
2018-02-18T17:05:20.283Z,65.47
2018-02-18T17:07:48.593Z,65.96
2018-02-18T17:10:16.894Z,66.17
2018-02-18T17:12:45.203Z,66.43
2018-02-18T17:15:13.485Z,66.70
2018-02-18T17:17:41.803Z,67.12
2018-02-18T17:20:10.116Z,67.90
2018-02-18T17:22:38.458Z,68.27
2018-02-18T17:25:06.875Z,68.87
2018-02-18T17:27:35.151Z,68.78
2018-02-18T17:30:04.083Z,69.00
2018-02-18T17:32:32.490Z,68.85
2018-02-18T17:35:00.811Z,68.83
2018-02-18T17:37:29.148Z,68.69
2018-02-18T17:39:57.460Z,69.04
2018-02-18T17:42:25.756Z,69.33
2018-02-18T17:44:54.100Z,69.26
2018-02-18T17:47:22.485Z,69.32
2018-02-18T17:49:50.972Z,69.20
2018-02-18T17:52:19.336Z,69.35
2018-02-18T17:54:47.687Z,69.50
2018-02-18T17:57:16.091Z,69.64
2018-02-18T17:59:44.377Z,69.45
2018-02-18T18:02:12.717Z,70.13
2018-02-18T18:04:41.085Z,69.94
2018-02-18T18:07:09.347Z,69.47
2018-02-18T18:09:37.698Z,69.86
2018-02-18T18:12:05.960Z,69.91
2018-02-18T18:14:34.257Z,69.65
2018-02-18T18:17:02.523Z,69.54
2018-02-18T18:19:30.807Z,69.53
2018-02-18T18:21:59.080Z,69.34
2018-02-18T18:24:27.372Z,69.06
2018-02-18T18:26:55.631Z,69.02
2018-02-18T18:29:23.920Z,69.45
2018-02-18T18:31:52.242Z,69.26
2018-02-18T18:34:20.521Z,69.34
2018-02-18T18:36:48.822Z,69.04
2018-02-18T18:39:17.161Z,68.95
2018-02-18T18:41:45.474Z,69.28
2018-02-18T18:44:13.756Z,69.54
2018-02-18T18:46:42.055Z,69.52
2018-02-18T18:49:10.339Z,69.68
2018-02-18T18:51:38.735Z,69.24
2018-02-18T18:54:06.990Z,68.95
2018-02-18T18:56:35.293Z,68.73
2018-02-18T18:59:03.922Z,69.08
2018-02-18T19:01:32.198Z,69.16
2018-02-18T19:04:00.487Z,69.33
2018-02-18T19:06:28.749Z,69.04
2018-02-18T19:08:57.040Z,67.46
2018-02-18T19:11:25.316Z,67.22
2018-02-18T19:13:53.600Z,67.39
2018-02-18T19:16:21.861Z,67.27
2018-02-18T19:18:50.193Z,67.14
2018-02-18T19:21:18.509Z,66.45
2018-02-18T19:23:46.780Z,67.00
2018-02-18T19:26:15.060Z,66.72
2018-02-18T19:28:43.356Z,66.78
2018-02-18T19:31:11.658Z,66.46
2018-02-18T19:33:39.941Z,66.20
2018-02-18T19:36:08.188Z,66.29
2018-02-18T19:38:36.439Z,66.73
2018-02-18T19:41:04.737Z,66.46
2018-02-18T19:43:33.000Z,66.42
2018-02-18T19:46:01.321Z,66.64
2018-02-18T19:48:29.588Z,66.41
2018-02-18T19:50:57.891Z,66.62
2018-02-18T19:53:26.199Z,66.46
2018-02-18T19:55:54.491Z,66.32
2018-02-18T19:58:22.770Z,66.61
2018-02-18T20:00:51.078Z,66.56
2018-02-18T20:03:19.350Z,66.39
2018-02-18T20:05:47.686Z,66.42
2018-02-18T20:08:15.971Z,66.73
2018-02-18T20:10:44.256Z,66.47
2018-02-18T20:13:12.559Z,66.48
2018-02-18T20:15:40.816Z,66.01
2018-02-18T20:18:09.117Z,66.46
2018-02-18T20:20:37.403Z,66.58
2018-02-18T20:23:05.694Z,66.44
2018-02-18T20:25:33.980Z,66.12
2018-02-18T20:28:02.280Z,66.04
2018-02-18T20:30:30.587Z,66.32
2018-02-18T20:32:58.865Z,66.29
2018-02-18T20:35:27.124Z,66.18
2018-02-18T20:37:55.422Z,65.64
2018-02-18T20:40:23.683Z,65.68
2018-02-18T20:42:51.971Z,65.68
2018-02-18T20:45:20.233Z,65.94
2018-02-18T20:47:48.530Z,65.15
2018-02-18T20:50:16.820Z,65.11
2018-02-18T20:52:45.129Z,65.35
2018-02-18T20:55:13.415Z,66.62
2018-02-18T20:57:41.700Z,66.46
2018-02-18T21:00:09.981Z,66.20
2018-02-18T21:02:38.348Z,65.92
2018-02-18T21:05:06.612Z,65.87
2018-02-18T21:07:34.872Z,65.42
2018-02-18T21:10:03.182Z,65.34
2018-02-18T21:12:31.451Z,65.92
2018-02-18T21:14:59.905Z,66.03
2018-02-18T21:17:28.246Z,66.44
2018-02-18T21:19:56.582Z,66.20
2018-02-18T21:22:24.860Z,66.39
2018-02-18T21:24:53.198Z,66.18
2018-02-18T21:27:21.511Z,65.13
2018-02-18T21:29:49.774Z,65.34
2018-02-18T21:32:18.068Z,65.65
2018-02-18T21:34:46.336Z,65.95
2018-02-18T21:37:14.944Z,66.40
2018-02-18T21:39:43.203Z,66.93
2018-02-18T21:42:11.500Z,66.83
2018-02-18T21:44:39.761Z,66.66
2018-02-18T21:47:08.054Z,66.33
2018-02-18T21:49:36.325Z,66.08
2018-02-18T21:52:04.606Z,65.92
2018-02-18T21:54:32.862Z,65.81
2018-02-18T21:57:01.171Z,65.99
2018-02-18T21:59:29.480Z,66.33
2018-02-18T22:01:57.771Z,66.21
2018-02-18T22:04:26.100Z,66.11
2018-02-18T22:06:54.367Z,65.98
2018-02-18T22:09:22.684Z,65.93
2018-02-18T22:11:50.925Z,65.72
2018-02-18T22:14:19.212Z,65.67
2018-02-18T22:16:47.496Z,66.18
2018-02-18T22:19:15.779Z,66.73
2018-02-18T22:21:44.067Z,66.77
2018-02-18T22:24:12.360Z,67.16
2018-02-18T22:26:40.643Z,67.31
2018-02-18T22:29:08.937Z,66.99
2018-02-18T22:31:37.204Z,67.23
2018-02-18T22:34:05.483Z,67.24
2018-02-18T22:36:33.750Z,67.39
2018-02-18T22:39:02.032Z,80.44
2018-02-18T22:41:30.295Z,66.82
2018-02-18T22:43:58.587Z,56.38
2018-02-18T22:46:26.896Z,52.21
2018-02-18T22:48:55.175Z,51.22
2018-02-18T22:51:23.481Z,49.98
2018-02-18T22:53:52.086Z,46.75
2018-02-18T22:56:20.383Z,42.54
2018-02-18T22:58:48.704Z,48.24
2018-02-18T23:01:16.936Z,53.38
2018-02-18T23:03:45.289Z,58.20
2018-02-18T23:06:13.504Z,60.87
2018-02-18T23:08:41.813Z,62.13
2018-02-18T23:11:10.128Z,62.85
2018-02-18T23:13:38.406Z,63.10
2018-02-18T23:16:06.724Z,63.69
2018-02-18T23:18:34.987Z,64.25
2018-02-18T23:21:09.324Z,64.57
2018-02-18T23:23:37.568Z,64.79
2018-02-18T23:26:05.851Z,65.08
2018-02-18T23:28:34.205Z,65.44
2018-02-18T23:31:02.538Z,65.16
2018-02-18T23:33:30.874Z,65.18
2018-02-18T23:35:59.136Z,65.74
2018-02-18T23:38:27.466Z,66.14
2018-02-18T23:40:55.748Z,66.21
2018-02-18T23:43:24.086Z,65.69
2018-02-18T23:45:52.394Z,65.51
2018-02-18T23:48:20.726Z,65.26
2018-02-18T23:50:49.103Z,65.20
2018-02-18T23:53:17.384Z,65.23
2018-02-18T23:55:45.756Z,65.35
2018-02-18T23:58:14.037Z,65.25
